Overview Statistics Trail Chart Weather Telemetry Raw packets
 

This is the latest recevied weather packets stored in our database for station/object DL5DI-H. If no packets are shown the sender has not sent any weather packets the latest 10 day(s).

<< 28 29 30 31 32 33 34 >>
Time Temp. Humidity Pressure Rain* Wind** Luminosity Snow
1788269400 25° C 46% 1020.6 hPa 0 mm - - -
1788268800 25° C 45% 1020.7 hPa 0 mm - - -
1788268201 25° C 45% 1020.8 hPa 0 mm - - -
1788267600 25° C 45% 1020.9 hPa 0 mm - - -
1788267002 24.44° C 45% 1021 hPa 0 mm - - -
1788266402 24.44° C 46% 1021.2 hPa 0 mm - - -
1788265803 23.33° C 49% 1021.2 hPa 0 mm - - -
1788265200 23.33° C 50% 1021.2 hPa 0 mm - - -
1788264601 22.78° C 53% 1021.2 hPa 0 mm - - -
1788264025 23.33° C 50% 1021.2 hPa 0 mm - - -
1788263402 22.78° C 52% 1021.2 hPa 0 mm - - -
1788262801 23.33° C 51% 1021.3 hPa 0 mm - - -
1788262218 23.33° C 52% 1021.3 hPa 0 mm - - -
1788261602 22.78° C 55% 1021.4 hPa 0 mm - - -
1788261002 22.22° C 55% 1021.4 hPa 0 mm - - -
1788260402 22.22° C 56% 1021.5 hPa 0 mm - - -
1788259800 21.67° C 63% 1021.6 hPa 0 mm - - -
1788259200 21.11° C 64% 1021.6 hPa 0 mm - - -
1788258601 21.11° C 63% 1021.7 hPa 0 mm - - -
1788258001 21.11° C 65% 1021.7 hPa 0 mm - - -
1788257402 21.11° C 69% 1021.7 hPa 0 mm - - -
1788256800 21.11° C 68% 1021.7 hPa 0 mm - - -
1788256202 20.56° C 75% 1021.7 hPa 0 mm - - -
1788255602 20° C 76% 1021.7 hPa 0 mm - - -
1788255000 20° C 77% 1021.8 hPa 0 mm - - -

* Rain latest hour (hover to see other rain measurements)
** Current wind speed in m/s (hover to see current wind gust speed)